Canton Township, Michigan
Current Conditions -  °F | °C
As of 6:15 AM on Saturday 25 Oct 2014 (Local Time) from KYIP Reporting Station
Haze Haze  
Wind Chill: 51°   Ceiling: 6000
Heat Index: 51°   Visibility: 3mi
Dew Point: 45°   Wind: 8mph
Humidity: 80%   Direction: 220°SW
Pressure: 29.87"   Gusts: NA
Location:  42.2857°N, 83.4854°W
Report Text: KYIP 251015Z 22007KT 3SM HZ BKN060 OVC080 11/07 A2987 RMK AO2 T01060072
Loading
Personal Weather Stations






























Interactive Weather Map
Tropical Storm Tracking
New forecast layout! Learn more

10-Day Weather Forecast

Advertisements
Track Severe Weather on mobile